Time;durP1;ratioP1;P1;durP2;ratioP2;P2;SDS_P1;SDS_P2;PMS_P1;PMS_P2;Temp;Humidity;BMP_temperature;BMP_pressure;BME280_temperature;BME280_humidity;BME280_pressure;Samples;Min_cycle;Max_cycle;Signal;HPM_P1;HPM_P2
2023/07/20 00:00:05;;;;;;;4.90;1.27;;;23.40;99.90;;;;;;4899267;29;20056;-75
2023/07/20 00:02:31;;;;;;;2.60;1.20;;;23.30;99.90;;;;;;4898960;29;20053;-75
2023/07/20 00:04:58;;;;;;;5.00;1.63;;;23.20;99.90;;;;;;4913143;29;20189;-75
2023/07/20 00:07:25;;;;;;;1.80;1.30;;;23.10;99.90;;;;;;4898877;29;20572;-75
2023/07/20 00:09:52;;;;;;;3.78;1.50;;;23.10;99.90;;;;;;4898992;29;20104;-75
2023/07/20 00:12:19;;;;;;;4.32;1.52;;;23.00;99.90;;;;;;4898967;29;20096;-75
2023/07/20 00:14:45;;;;;;;3.38;1.17;;;23.00;99.90;;;;;;4898712;29;20465;-75
2023/07/20 00:17:12;;;;;;;5.22;1.33;;;22.90;99.90;;;;;;4895273;29;21117;-75
2023/07/20 00:19:39;;;;;;;2.15;1.35;;;22.90;99.90;;;;;;4896270;29;20048;-75
2023/07/20 00:22:06;;;;;;;3.00;1.48;;;22.90;99.90;;;;;;4897214;29;20432;-75
2023/07/20 00:24:32;;;;;;;7.90;1.52;;;22.90;99.90;;;;;;4897636;29;20096;-75
2023/07/20 00:27:00;;;;;;;4.93;1.33;;;22.90;99.90;;;;;;4898816;29;20056;-74
2023/07/20 00:29:28;;;;;;;2.88;1.08;;;22.80;99.90;;;;;;4899135;29;20086;-74
2023/07/20 00:31:55;;;;;;;3.42;1.40;;;22.80;99.90;;;;;;4898687;29;20044;-75
2023/07/20 00:34:21;;;;;;;3.90;1.60;;;22.80;99.90;;;;;;4898165;29;20048;-75
2023/07/20 00:36:49;;;;;;;4.88;1.50;;;22.80;99.90;;;;;;4898284;29;20112;-75
2023/07/20 00:39:16;;;;;;;6.45;1.55;;;22.80;99.90;;;;;;4898466;29;20116;-75
2023/07/20 00:41:42;;;;;;;4.88;1.85;;;22.80;99.90;;;;;;4898437;29;20122;-77
2023/07/20 00:44:09;;;;;;;5.60;1.98;;;22.80;99.90;;;;;;4897947;29;20509;-75
2023/07/20 00:46:36;;;;;;;3.13;1.70;;;22.80;99.90;;;;;;4898055;29;20094;-75
2023/07/20 00:49:03;;;;;;;3.63;1.77;;;22.70;99.90;;;;;;4898208;29;20478;-75
2023/07/20 00:51:30;;;;;;;6.15;1.92;;;22.70;99.90;;;;;;4898017;29;20089;-75
2023/07/20 00:53:57;;;;;;;4.55;2.17;;;22.70;99.90;;;;;;4896797;29;20052;-75
2023/07/20 00:56:24;;;;;;;5.40;2.17;;;22.70;99.90;;;;;;4898147;29;20102;-75
2023/07/20 00:58:52;;;;;;;6.40;2.00;;;22.70;99.90;;;;;;4898004;29;20143;-75
2023/07/20 01:01:19;;;;;;;4.57;2.00;;;22.70;99.90;;;;;;4897991;29;20481;-77
2023/07/20 01:03:47;;;;;;;6.78;2.38;;;22.70;99.90;;;;;;4897614;29;20055;-75
2023/07/20 01:06:34;;;;;;;3.78;1.70;;;22.70;99.90;;;;;;4893601;29;20135;-75
2023/07/20 01:09:12;;;;;;;4.65;2.20;;;22.70;99.90;;;;;;4897059;29;20508;-74
2023/07/20 01:11:52;;;;;;;5.75;2.25;;;22.70;99.90;;;;;;4897823;29;20056;-75
2023/07/20 01:14:19;;;;;;;4.32;2.20;;;22.70;99.90;;;;;;4897315;29;20116;-75
2023/07/20 01:16:47;;;;;;;4.20;1.83;;;22.70;99.90;;;;;;4897603;29;20061;-75
2023/07/20 01:19:14;;;;;;;10.15;2.80;;;22.70;99.90;;;;;;4897543;29;20086;-77
2023/07/20 01:22:21;;;;;;;5.45;2.08;;;22.60;99.90;;;;;;4897710;29;20096;-75
2023/07/20 01:25:11;;;;;;;2.85;1.92;;;22.60;99.90;;;;;;4865320;29;20060;-75
2023/07/20 01:27:47;;;;;;;3.40;1.75;;;22.60;99.90;;;;;;4895068;29;20067;-75
2023/07/20 01:30:31;;;;;;;5.63;2.08;;;22.60;99.90;;;;;;4897280;29;20567;-74
2023/07/20 01:32:58;;;;;;;7.70;2.28;;;22.60;99.90;;;;;;4894892;29;20056;-75
2023/07/20 01:35:29;;;;;;;5.25;2.75;;;22.60;99.90;;;;;;4895346;29;20108;-75
2023/07/20 01:37:58;;;;;;;5.95;2.28;;;22.60;99.90;;;;;;4897482;29;20052;-75
2023/07/20 01:40:25;;;;;;;4.75;2.13;;;22.50;99.90;;;;;;4897068;29;20056;-75
2023/07/20 01:42:53;;;;;;;6.68;2.22;;;22.50;99.90;;;;;;4897239;29;20044;-76
2023/07/20 01:45:20;;;;;;;4.38;1.75;;;22.50;99.90;;;;;;4896272;29;20069;-75
2023/07/20 01:47:47;;;;;;;6.75;2.22;;;22.50;99.90;;;;;;4897021;29;20059;-75
2023/07/20 01:50:14;;;;;;;4.97;2.33;;;22.50;99.90;;;;;;4896640;29;20055;-74
2023/07/20 01:52:40;;;;;;;6.10;2.20;;;22.50;99.90;;;;;;4897164;29;20105;-76
2023/07/20 01:55:08;;;;;;;6.28;2.30;;;22.40;99.90;;;;;;4896733;29;20085;-77
2023/07/20 01:57:35;;;;;;;8.38;3.10;;;22.40;99.90;;;;;;4895504;29;20100;-75
2023/07/20 02:00:02;;;;;;;5.60;2.45;;;22.40;99.90;;;;;;4896779;29;20108;-75
2023/07/20 02:02:29;;;;;;;4.80;2.03;;;22.40;99.90;;;;;;4896789;29;20049;-77
2023/07/20 02:04:56;;;;;;;4.78;1.98;;;22.40;99.90;;;;;;4896609;29;20049;-75
2023/07/20 02:07:23;;;;;;;4.53;2.15;;;22.40;99.90;;;;;;4896874;29;20045;-74
2023/07/20 02:09:49;;;;;;;5.10;2.28;;;22.30;99.90;;;;;;4896788;29;20044;-75
2023/07/20 02:12:16;;;;;;;8.20;2.30;;;22.30;99.90;;;;;;4896683;29;20048;-75
2023/07/20 02:14:43;;;;;;;4.57;2.30;;;22.30;99.90;;;;;;4896163;29;20101;-74
2023/07/20 02:17:11;;;;;;;5.32;2.45;;;22.20;99.90;;;;;;4896242;29;20145;-74
2023/07/20 02:19:38;;;;;;;4.18;2.33;;;22.20;99.90;;;;;;4892796;29;20052;-74
2023/07/20 02:22:06;;;;;;;5.47;2.25;;;22.20;99.90;;;;;;4894425;29;20140;-75
2023/07/20 02:24:33;;;;;;;5.25;2.40;;;22.10;99.90;;;;;;4896254;29;20067;-75
2023/07/20 02:27:00;;;;;;;7.75;2.35;;;22.10;99.90;;;;;;4895754;29;20127;-75
2023/07/20 02:29:27;;;;;;;3.03;2.05;;;22.00;99.90;;;;;;4896561;29;20108;-75
2023/07/20 02:31:54;;;;;;;5.53;1.80;;;22.00;99.90;;;;;;4896358;29;20501;-75
2023/07/20 02:34:21;;;;;;;5.72;2.35;;;22.00;99.90;;;;;;4897514;29;20048;-73
2023/07/20 02:36:48;;;;;;;4.00;2.05;;;21.90;99.90;;;;;;4897027;29;20611;-75
2023/07/20 02:39:14;;;;;;;5.25;1.75;;;21.90;99.90;;;;;;4895283;29;20048;-75
2023/07/20 02:41:42;;;;;;;4.97;1.80;;;21.80;99.90;;;;;;4896492;29;20497;-75
2023/07/20 02:44:08;;;;;;;5.85;2.20;;;21.80;99.90;;;;;;4896078;29;20056;-75
2023/07/20 02:46:35;;;;;;;3.33;1.92;;;21.80;99.90;;;;;;4895977;29;20454;-75
2023/07/20 02:49:02;;;;;;;4.30;1.90;;;21.80;99.90;;;;;;4910602;29;20087;-74
2023/07/20 02:51:28;;;;;;;4.15;1.85;;;21.80;99.90;;;;;;4896119;29;20049;-74
2023/07/20 02:53:55;;;;;;;3.53;2.15;;;21.70;99.90;;;;;;4895793;29;20048;-75
2023/07/20 02:56:22;;;;;;;3.47;2.00;;;21.70;99.90;;;;;;4896134;29;20052;-75
2023/07/20 02:58:50;;;;;;;3.72;2.00;;;21.70;99.90;;;;;;4896179;29;20052;-75
2023/07/20 03:01:17;;;;;;;5.07;1.88;;;21.70;99.90;;;;;;4895870;29;20056;-75
2023/07/20 03:03:46;;;;;;;8.70;2.30;;;21.60;99.90;;;;;;4896025;29;20068;-73
2023/07/20 03:06:14;;;;;;;5.95;2.10;;;21.60;99.90;;;;;;4892649;29;20084;-74
2023/07/20 03:08:47;;;;;;;4.43;2.10;;;21.70;99.90;;;;;;4894722;29;20048;-79
2023/07/20 03:11:15;;;;;;;5.13;2.00;;;21.60;99.90;;;;;;4894198;29;20049;-75
2023/07/20 03:13:42;;;;;;;6.18;2.13;;;21.60;99.90;;;;;;4894196;29;20045;-75
2023/07/20 03:16:11;;;;;;;5.85;2.75;;;21.50;99.90;;;;;;4895778;29;20052;-75
2023/07/20 03:18:41;;;;;;;4.15;2.00;;;21.50;99.90;;;;;;4910554;29;20150;-75
2023/07/20 03:21:11;;;;;;;6.40;2.10;;;21.50;99.90;;;;;;4896092;29;20108;-76
2023/07/20 03:23:41;;;;;;;2.45;1.80;;;21.50;99.90;;;;;;4895812;29;20048;-75
2023/07/20 03:26:08;;;;;;;5.28;2.40;;;21.50;99.90;;;;;;4896220;29;20508;-76
2023/07/20 03:28:36;;;;;;;8.40;2.20;;;21.50;99.90;;;;;;4896163;29;20104;-76
2023/07/20 03:31:03;;;;;;;5.53;2.17;;;21.40;99.90;;;;;;4899800;29;20052;-76
2023/07/20 03:33:31;;;;;;;2.75;1.67;;;21.40;99.90;;;;;;4898275;29;20054;-76
2023/07/20 03:35:58;;;;;;;5.85;2.13;;;21.40;99.90;;;;;;4899179;29;20057;-75
2023/07/20 03:38:27;;;;;;;4.75;2.10;;;21.40;99.90;;;;;;4899404;29;20056;-76
2023/07/20 03:40:56;;;;;;;5.43;2.58;;;21.40;99.90;;;;;;4899536;29;20048;-75
2023/07/20 03:43:24;;;;;;;4.80;2.22;;;21.30;99.90;;;;;;4899460;29;20056;-76
2023/07/20 03:45:52;;;;;;;5.03;2.05;;;21.40;99.90;;;;;;4896396;29;20056;-75
2023/07/20 03:48:21;;;;;;;4.57;2.30;;;21.30;99.90;;;;;;4899368;29;20508;-75
2023/07/20 03:50:50;;;;;;;5.43;2.25;;;21.30;99.90;;;;;;4896831;29;20466;-76
2023/07/20 03:53:17;;;;;;;11.00;2.38;;;21.30;99.90;;;;;;4899177;29;20108;-75
2023/07/20 03:55:47;;;;;;;5.90;2.10;;;21.30;99.90;;;;;;4898739;29;20098;-76
2023/07/20 03:58:15;;;;;;;4.40;2.20;;;21.30;99.90;;;;;;4913850;29;20119;-76
2023/07/20 04:00:50;;;;;;;5.18;2.13;;;21.30;99.90;;;;;;4898881;29;20522;-75
2023/07/20 04:03:18;;;;;;;4.28;1.80;;;21.20;99.90;;;;;;4897552;29;20064;-75
2023/07/20 04:05:45;;;;;;;4.60;2.40;;;21.20;99.90;;;;;;4898538;29;20059;-76
2023/07/20 04:08:12;;;;;;;6.05;2.38;;;21.20;99.90;;;;;;4898950;29;20461;-76
2023/07/20 04:10:39;;;;;;;5.80;3.15;;;21.20;99.90;;;;;;4898973;29;20460;-76
2023/07/20 04:13:07;;;;;;;5.22;2.20;;;21.20;99.90;;;;;;4898747;29;20161;-76
2023/07/20 04:15:33;;;;;;;6.55;1.90;;;21.20;99.90;;;;;;4898499;29;20053;-76
2023/07/20 04:18:00;;;;;;;7.43;2.35;;;21.20;99.90;;;;;;4898670;29;20535;-76
2023/07/20 04:20:27;;;;;;;8.68;2.35;;;21.20;99.90;;;;;;4898622;29;20052;-76
2023/07/20 04:22:54;;;;;;;5.95;2.10;;;21.10;99.90;;;;;;4898855;29;20056;-75
2023/07/20 04:25:21;;;;;;;4.70;2.90;;;21.10;99.90;;;;;;4912876;29;20457;-76
2023/07/20 04:27:48;;;;;;;3.53;2.17;;;21.10;99.90;;;;;;4898785;29;20457;-75
2023/07/20 04:30:20;;;;;;;7.70;4.15;;;21.10;99.90;;;;;;4898472;29;20481;-76
2023/07/20 04:32:46;;;;;;;6.35;3.40;;;21.00;99.90;;;;;;4898539;29;20136;-75
2023/07/20 04:35:50;;;;;;;4.45;2.53;;;21.00;99.90;;;;;;4897982;29;20503;-75
2023/07/20 04:38:17;;;;;;;4.85;2.30;;;21.00;99.90;;;;;;4895872;29;20100;-76
2023/07/20 04:40:49;;;;;;;7.22;2.50;;;21.00;99.90;;;;;;4897412;29;20059;-75
2023/07/20 04:43:17;;;;;;;7.05;2.20;;;21.00;99.90;;;;;;4898353;29;20055;-76
2023/07/20 04:45:45;;;;;;;8.57;2.47;;;21.00;99.90;;;;;;4896397;29;20053;-75
2023/07/20 04:48:15;;;;;;;8.13;2.47;;;20.90;99.90;;;;;;4898448;29;20090;-75
2023/07/20 04:50:42;;;;;;;;;;;20.90;99.90;;;;;;4898498;29;20052;-76
2023/07/20 04:53:12;;;;;;;4.60;2.03;;;20.90;99.90;;;;;;4898189;29;20364;-76
2023/07/20 04:55:40;;;;;;;4.63;2.38;;;21.00;99.90;;;;;;4897693;29;20053;-75
2023/07/20 04:58:07;;;;;;;7.20;2.35;;;21.00;99.90;;;;;;4897983;29;20056;-76
2023/07/20 05:00:34;;;;;;;4.25;2.20;;;21.00;99.90;;;;;;4898132;29;20057;-76
2023/07/20 05:03:01;;;;;;;6.45;3.30;;;21.10;99.90;;;;;;4897975;29;20057;-76
2023/07/20 05:05:28;;;;;;;9.48;3.08;;;21.10;99.90;;;;;;4896548;29;20044;-75
2023/07/20 05:07:55;;;;;;;11.27;2.55;;;21.10;99.90;;;;;;4898167;29;20675;-76
2023/07/20 05:10:22;;;;;;;3.72;2.30;;;21.10;99.90;;;;;;4897986;29;20053;-76
2023/07/20 05:12:48;;;;;;;3.28;2.00;;;21.10;99.90;;;;;;4898049;29;20048;-76
2023/07/20 05:15:15;;;;;;;3.90;2.35;;;21.20;99.90;;;;;;4897780;29;20108;-76
2023/07/20 05:17:42;;;;;;;3.97;2.38;;;21.30;99.90;;;;;;4897960;29;20053;-76
2023/07/20 05:20:12;;;;;;;4.65;2.42;;;21.30;99.90;;;;;;4896653;29;20052;-76
2023/07/20 05:22:40;;;;;;;5.75;2.22;;;21.40;99.90;;;;;;4897076;29;20052;-76
2023/07/20 05:25:08;;;;;;;4.68;2.45;;;21.50;99.90;;;;;;4897377;29;20048;-76
2023/07/20 05:27:39;;;;;;;4.90;2.05;;;21.60;99.90;;;;;;4897790;29;20051;-76
2023/07/20 05:30:07;;;;;;;7.95;2.75;;;21.70;99.90;;;;;;4897901;29;20112;-76
2023/07/20 05:32:33;;;;;;;4.68;2.75;;;21.80;99.90;;;;;;4897643;29;20109;-76
2023/07/20 05:35:00;;;;;;;5.85;2.45;;;21.80;99.90;;;;;;4911317;29;20067;-75
2023/07/20 05:37:27;;;;;;;4.03;2.40;;;22.00;99.90;;;;;;4897908;29;20056;-76
2023/07/20 05:39:54;;;;;;;4.38;2.25;;;22.10;99.90;;;;;;4897203;29;20131;-76
2023/07/20 05:42:21;;;;;;;4.05;2.20;;;22.10;99.90;;;;;;4897742;29;20056;-76
2023/07/20 05:44:49;;;;;;;8.73;2.58;;;22.10;99.90;;;;;;4897061;29;20048;-76
2023/07/20 05:47:16;;;;;;;3.45;2.50;;;22.20;99.90;;;;;;4897080;29;20052;-76
2023/07/20 05:49:43;;;;;;;6.25;2.22;;;22.30;99.90;;;;;;4896980;29;20056;-76
2023/07/20 05:52:09;;;;;;;7.72;2.70;;;22.30;99.90;;;;;;4897573;29;20568;-76
2023/07/20 05:54:36;;;;;;;3.85;2.10;;;22.30;99.90;;;;;;4897540;29;20477;-76
2023/07/20 05:57:04;;;;;;;5.45;2.17;;;22.30;99.90;;;;;;4897232;29;20053;-76
2023/07/20 05:59:31;;;;;;;9.13;2.55;;;22.30;99.90;;;;;;4897281;29;20057;-76
2023/07/20 06:01:58;;;;;;;6.05;2.63;;;22.30;99.90;;;;;;4897393;29;20053;-76
2023/07/20 06:04:25;;;;;;;4.40;2.42;;;22.30;99.90;;;;;;4896821;29;20052;-76
2023/07/20 06:06:52;;;;;;;7.18;2.25;;;22.30;99.90;;;;;;4896843;29;20104;-76
2023/07/20 06:09:18;;;;;;;6.50;2.53;;;22.30;99.90;;;;;;4897355;29;20056;-76
2023/07/20 06:11:45;;;;;;;6.70;2.65;;;22.30;99.90;;;;;;4896775;29;20540;-76
2023/07/20 06:14:12;;;;;;;4.22;2.72;;;22.30;99.90;;;;;;4896649;29;20135;-76
2023/07/20 06:16:39;;;;;;;4.38;2.55;;;22.30;99.90;;;;;;4895736;29;20051;-76
2023/07/20 06:19:06;;;;;;;5.50;2.30;;;22.30;99.90;;;;;;4909040;29;20053;-76
2023/07/20 06:21:33;;;;;;;3.75;2.38;;;22.20;99.90;;;;;;4910931;29;20052;-76
2023/07/20 06:23:59;;;;;;;10.23;2.75;;;22.20;99.90;;;;;;4893611;29;20063;-76
2023/07/20 06:26:26;;;;;;;5.50;2.58;;;22.10;99.90;;;;;;4896581;29;20044;-76
2023/07/20 06:28:53;;;;;;;5.85;2.60;;;22.10;99.90;;;;;;4896523;29;20100;-76
2023/07/20 06:31:20;;;;;;;4.50;2.40;;;22.10;99.90;;;;;;4896532;29;20052;-76
2023/07/20 06:33:47;;;;;;;5.93;2.83;;;22.10;99.90;;;;;;4896330;29;20492;-76
2023/07/20 06:36:17;;;;;;;5.03;2.38;;;22.10;99.90;;;;;;4893969;29;20444;-76
2023/07/20 06:38:44;;;;;;;8.60;2.85;;;22.10;99.90;;;;;;4896625;29;20116;-76
2023/07/20 06:41:31;;;;;;;5.10;2.38;;;22.00;99.90;;;;;;4896689;29;20056;-76
2023/07/20 06:44:00;;;;;;;4.85;2.60;;;21.90;99.90;;;;;;4893965;29;20096;-76
2023/07/20 06:46:27;;;;;;;4.80;2.50;;;21.90;99.90;;;;;;4895990;29;20108;-76
2023/07/20 06:48:54;;;;;;;4.25;2.42;;;21.80;99.90;;;;;;4896531;29;20397;-76
2023/07/20 06:51:24;;;;;;;6.78;2.72;;;21.80;99.90;;;;;;4896652;29;20508;-76
2023/07/20 06:53:52;;;;;;;5.60;3.00;;;21.80;99.90;;;;;;4895373;29;20044;-76
2023/07/20 06:56:18;;;;;;;6.32;2.28;;;21.80;99.90;;;;;;4896251;29;20112;-76
2023/07/20 06:58:49;;;;;;;5.20;2.65;;;21.80;99.90;;;;;;4910035;29;20575;-76
2023/07/20 07:01:16;;;;;;;9.43;3.35;;;21.90;99.90;;;;;;4896192;29;20087;-75
2023/07/20 07:03:43;;;;;;;3.40;2.42;;;21.80;99.90;;;;;;4896724;29;20108;-76
2023/07/20 07:06:10;;;;;;;5.05;2.60;;;21.80;99.90;;;;;;4900007;29;20056;-76
2023/07/20 07:08:37;;;;;;;5.75;2.92;;;21.70;99.90;;;;;;4899989;29;20081;-76
2023/07/20 07:11:05;;;;;;;5.35;2.65;;;21.70;99.90;;;;;;4900008;29;20080;-76
2023/07/20 07:13:32;;;;;;;6.30;2.58;;;21.70;99.90;;;;;;4897761;29;20120;-76
2023/07/20 07:15:58;;;;;;;5.93;2.60;;;21.70;99.90;;;;;;4899927;29;20056;-76
2023/07/20 07:18:26;;;;;;;7.60;2.28;;;21.70;99.90;;;;;;4900173;29;20048;-76
2023/07/20 07:20:53;;;;;;;4.85;2.70;;;21.80;99.90;;;;;;4898560;29;20580;-76
2023/07/20 07:23:21;;;;;;;7.75;2.63;;;21.80;99.90;;;;;;4899975;29;20100;-75
2023/07/20 07:25:48;;;;;;;6.57;2.47;;;21.90;99.90;;;;;;4898946;29;20537;-76
2023/07/20 07:28:15;;;;;;;3.72;2.50;;;22.00;99.90;;;;;;4899563;29;20052;-75
2023/07/20 07:30:42;;;;;;;5.10;2.40;;;22.00;99.90;;;;;;4914519;29;20076;-76
2023/07/20 07:33:09;;;;;;;7.07;2.58;;;22.10;99.90;;;;;;4897874;29;20488;-76
2023/07/20 07:35:37;;;;;;;5.85;3.00;;;22.10;99.90;;;;;;4899207;29;20048;-76
2023/07/20 07:38:04;;;;;;;5.05;2.30;;;22.10;99.90;;;;;;4896390;29;20059;-76
2023/07/20 07:40:50;;;;;;;7.32;2.60;;;22.20;99.90;;;;;;4899698;29;20048;-76
2023/07/20 07:43:17;;;;;;;6.00;2.25;;;22.30;99.90;;;;;;4899652;29;20057;-76
2023/07/20 07:45:44;;;;;;;5.10;2.10;;;22.40;99.90;;;;;;4898620;29;20477;-75
2023/07/20 07:48:12;;;;;;;4.75;2.50;;;22.50;99.90;;;;;;4899377;29;20064;-76
2023/07/20 07:50:42;;;;;;;6.28;2.42;;;22.60;99.90;;;;;;4899300;29;20525;-76
2023/07/20 07:53:09;;;;;;;6.90;2.40;;;22.70;99.90;;;;;;4899317;29;20047;-76
2023/07/20 07:55:36;;;;;;;4.38;1.95;;;22.70;99.90;;;;;;4898988;29;20121;-76
2023/07/20 07:58:03;;;;;;;4.25;2.33;;;22.80;99.90;;;;;;4897575;29;20104;-76
2023/07/20 08:00:30;;;;;;;3.17;2.25;;;22.80;99.90;;;;;;4899242;29;20104;-76
2023/07/20 08:02:56;;;;;;;3.85;2.35;;;22.90;99.90;;;;;;4899159;29;20084;-76
2023/07/20 08:05:24;;;;;;;4.70;2.28;;;22.90;99.90;;;;;;4898905;29;20487;-76
2023/07/20 08:07:52;;;;;;;8.27;2.55;;;23.00;99.90;;;;;;4898895;29;20397;-76
2023/07/20 08:10:19;;;;;;;7.30;2.60;;;23.00;99.90;;;;;;4899134;29;20048;-76
2023/07/20 08:12:45;;;;;;;3.38;2.20;;;23.10;99.90;;;;;;4899066;29;20048;-76
2023/07/20 08:15:14;;;;;;;5.38;2.05;;;23.10;99.90;;;;;;4896581;29;20041;-76
2023/07/20 08:17:44;;;;;;;6.28;2.50;;;23.10;99.90;;;;;;4897136;29;20048;-76
2023/07/20 08:20:13;;;;;;;6.25;2.10;;;23.20;99.90;;;;;;4898951;29;20049;-76
2023/07/20 08:22:40;;;;;;;5.80;1.95;;;23.30;99.90;;;;;;4898901;29;20051;-76
2023/07/20 08:25:07;;;;;;;4.35;2.22;;;23.30;99.90;;;;;;4898731;29;20057;-76
2023/07/20 08:27:34;;;;;;;5.32;2.20;;;23.30;99.90;;;;;;4898707;29;20052;-76
2023/07/20 08:30:00;;;;;;;5.45;1.83;;;23.20;99.90;;;;;;4898761;29;20052;-76
2023/07/20 08:32:27;;;;;;;5.03;2.22;;;23.20;99.90;;;;;;4898725;29;20044;-76
2023/07/20 08:34:54;;;;;;;6.55;2.05;;;23.10;99.90;;;;;;4896841;29;20556;-76
2023/07/20 08:37:21;;;;;;;3.80;2.10;;;23.10;99.90;;;;;;4913251;29;20128;-76
2023/07/20 08:39:47;;;;;;;5.05;1.90;;;23.10;99.90;;;;;;4898324;29;20139;-76
2023/07/20 08:42:15;;;;;;;3.28;1.88;;;23.00;99.90;;;;;;4898729;29;20044;-76
2023/07/20 08:44:43;;;;;;;6.13;2.05;;;23.00;99.90;;;;;;4898149;29;20096;-76
2023/07/20 08:47:12;;;;;;;6.43;2.08;;;23.10;99.90;;;;;;4896055;29;20096;-76
2023/07/20 08:49:39;;;;;;;7.57;2.38;;;23.10;99.90;;;;;;4898588;29;20067;-76
2023/07/20 08:52:07;;;;;;;4.32;2.05;;;23.00;99.90;;;;;;4898640;29;20130;-76
2023/07/20 08:54:35;;;;;;;5.75;2.33;;;23.00;99.90;;;;;;4897955;29;20428;-76
2023/07/20 08:57:04;;;;;;;4.15;2.00;;;23.00;99.90;;;;;;4898338;29;20048;-76
2023/07/20 08:59:32;;;;;;;5.15;2.28;;;23.00;99.90;;;;;;4898536;29;20048;-76
2023/07/20 09:01:59;;;;;;;4.10;2.10;;;23.00;99.90;;;;;;4898158;29;20048;-76
2023/07/20 09:04:26;;;;;;;5.10;2.20;;;23.00;99.90;;;;;;4896904;29;20052;-76
2023/07/20 09:06:53;;;;;;;7.80;2.65;;;23.00;99.90;;;;;;4898840;29;20048;-76
2023/07/20 09:09:20;;;;;;;4.75;2.25;;;23.00;99.90;;;;;;4913993;29;20052;-76
2023/07/20 09:11:50;;;;;;;3.53;1.88;;;23.00;99.90;;;;;;4898212;29;20052;-76
2023/07/20 09:14:17;;;;;;;2.65;1.90;;;23.00;99.90;;;;;;4897157;29;20044;-76
2023/07/20 09:16:49;;;;;;;4.47;2.15;;;23.10;99.90;;;;;;4895133;29;20052;-76
2023/07/20 09:19:17;;;;;;;4.05;2.00;;;23.10;99.90;;;;;;4899978;29;20132;-76
2023/07/20 09:21:48;;;;;;;5.28;2.00;;;23.00;99.90;;;;;;4897859;29;20476;-76
2023/07/20 09:24:18;;;;;;;4.22;1.92;;;23.00;99.90;;;;;;4897430;29;20056;-76
2023/07/20 09:26:50;;;;;;;6.35;2.15;;;22.90;99.90;;;;;;4896607;29;20521;-76
2023/07/20 09:29:20;;;;;;;5.57;1.90;;;23.00;99.90;;;;;;4896877;29;20044;-76
2023/07/20 09:32:03;;;;;;;5.50;2.00;;;23.10;99.90;;;;;;4897750;29;20473;-76
2023/07/20 09:34:31;;;;;;;4.35;1.77;;;23.20;99.90;;;;;;4897000;29;20056;-77
2023/07/20 09:37:01;;;;;;;3.35;1.88;;;23.30;99.90;;;;;;4896620;29;20048;-76
2023/07/20 09:39:29;;;;;;;4.13;2.63;;;23.40;99.90;;;;;;4911641;29;20056;-76
2023/07/20 09:42:01;;;;;;;3.72;1.77;;;23.50;99.90;;;;;;4897586;29;20048;-76
2023/07/20 09:44:31;;;;;;;2.60;1.70;;;23.60;99.90;;;;;;4895766;29;20116;-76
2023/07/20 09:47:03;;;;;;;8.40;2.10;;;23.70;99.90;;;;;;4894948;29;20123;-76
2023/07/20 09:49:31;;;;;;;3.67;1.88;;;23.90;99.90;;;;;;4896784;29;20052;-76
2023/07/20 09:52:19;;;;;;;5.35;1.60;;;24.00;99.90;;;;;;4896314;29;20434;-76
2023/07/20 09:54:49;;;;;;;6.25;2.45;;;24.10;99.90;;;;;;4896783;29;20104;-76
2023/07/20 09:57:16;;;;;;;3.58;1.80;;;24.20;99.90;;;;;;4897322;29;20053;-76
2023/07/20 09:59:43;;;;;;;6.53;1.92;;;24.30;99.90;;;;;;4897115;29;20059;-76
2023/07/20 10:02:29;;;;;;;4.57;1.80;;;24.40;99.90;;;;;;4893654;29;20051;-76
2023/07/20 10:05:02;;;;;;;5.07;1.90;;;24.30;99.90;;;;;;4896475;29;20497;-76
2023/07/20 10:07:30;;;;;;;5.97;2.10;;;24.30;99.90;;;;;;4896226;29;20044;-76
2023/07/20 10:10:01;;;;;;;7.68;2.25;;;24.30;99.90;;;;;;4897054;29;20040;-76
2023/07/20 10:12:28;;;;;;;4.45;1.60;;;24.30;99.90;;;;;;4896850;29;20048;-76
2023/07/20 10:15:11;;;;;;;7.05;1.95;;;24.20;99.90;;;;;;4896065;29;20116;-76
2023/07/20 10:17:51;;;;;;;7.20;1.90;;;24.10;99.90;;;;;;4894321;29;20079;-76
2023/07/20 10:20:21;;;;;;;3.05;1.88;;;24.10;99.90;;;;;;4893647;29;20049;-76
2023/07/20 10:22:49;;;;;;;5.07;1.95;;;24.10;99.90;;;;;;4893522;29;20084;-76
2023/07/20 10:25:18;;;;;;;11.95;2.63;;;24.10;99.90;;;;;;4890792;29;20044;-79
2023/07/20 10:27:46;;;;;;;7.65;2.10;;;24.10;99.90;;;;;;4891284;29;20048;-75
2023/07/20 10:30:14;;;;;;;5.88;1.70;;;24.10;99.90;;;;;;4892077;29;20052;-76
2023/07/20 10:32:42;;;;;;;5.25;1.83;;;24.00;99.90;;;;;;4896196;29;20052;-76
2023/07/20 10:35:16;;;;;;;5.50;1.67;;;24.00;99.90;;;;;;4893661;29;20523;-76
2023/07/20 10:37:54;;;;;;;4.25;1.50;;;24.00;99.90;;;;;;4893425;29;20052;-76
2023/07/20 10:40:26;;;;;;;5.40;1.55;;;24.00;99.90;;;;;;4890132;29;20482;-76
2023/07/20 10:42:59;;;;;;;3.15;1.42;;;24.00;99.90;;;;;;4894058;29;20064;-75
2023/07/20 10:45:48;;;;;;;8.35;1.73;;;24.00;99.90;;;;;;4893753;29;20076;-76
2023/07/20 10:48:19;;;;;;;5.85;1.60;;;24.10;99.90;;;;;;4895705;29;20052;-76
2023/07/20 10:51:06;;;;;;;6.07;1.80;;;24.20;99.90;;;;;;4891708;29;20144;-76
2023/07/20 10:53:33;;;;;;;5.22;1.80;;;24.30;99.90;;;;;;4902672;29;20040;-76
2023/07/20 10:56:15;;;;;;;8.15;2.05;;;24.30;99.90;;;;;;4894726;29;20095;-76
2023/07/20 10:58:42;;;;;;;4.47;1.90;;;24.40;99.90;;;;;;4892198;29;20052;-76
2023/07/20 11:01:13;;;;;;;4.65;1.65;;;24.30;99.90;;;;;;4894592;29;20051;-76
2023/07/20 11:03:43;;;;;;;4.90;1.75;;;24.30;99.90;;;;;;4892405;29;20057;-76
2023/07/20 11:06:26;;;;;;;3.30;1.52;;;24.30;99.90;;;;;;4901570;29;20100;-76
2023/07/20 11:09:02;;;;;;;3.33;1.77;;;24.30;99.90;;;;;;4894737;29;20080;-78
2023/07/20 11:11:30;;;;;;;7.72;2.30;;;24.30;99.90;;;;;;4893295;29;20045;-76
2023/07/20 11:14:02;;;;;;;2.63;1.45;;;24.30;99.90;;;;;;4895304;29;20508;-76
2023/07/20 11:16:43;;;;;;;7.22;1.80;;;24.40;99.90;;;;;;4894454;29;20049;-76
2023/07/20 11:19:15;;;;;;;4.07;1.60;;;24.40;99.90;;;;;;4891576;29;20140;-76
2023/07/20 11:22:07;;;;;;;5.53;1.80;;;24.50;99.90;;;;;;4892885;29;20575;-76
2023/07/20 11:24:34;;;;;;;4.97;1.80;;;24.60;99.90;;;;;;4894678;29;20409;-76
2023/07/20 11:27:01;;;;;;;3.63;1.90;;;24.70;99.90;;;;;;4893932;29;20063;-76
2023/07/20 11:29:28;;;;;;;6.22;2.00;;;24.80;99.90;;;;;;4907187;29;20610;-76
2023/07/20 11:32:02;;;;;;;4.75;1.55;;;24.80;99.90;;;;;;4894199;29;20136;-76
2023/07/20 11:34:33;;;;;;;6.90;1.85;;;24.80;99.90;;;;;;4893207;29;20077;-76
2023/07/20 11:37:00;;;;;;;3.45;1.98;;;24.80;99.90;;;;;;4895561;29;20420;-76
2023/07/20 11:39:30;;;;;;;2.88;1.50;;;24.80;99.90;;;;;;4893191;29;20132;-76
2023/07/20 11:41:57;;;;;;;5.43;1.60;;;24.90;99.90;;;;;;4892961;29;20575;-76
2023/07/20 11:44:28;;;;;;;4.93;1.70;;;25.00;99.90;;;;;;4917395;23;20056;-79
2023/07/20 11:47:07;;;;;;;3.28;1.40;;;25.10;99.90;;;;;;4915634;29;20504;-79
2023/07/20 11:49:41;;;;;;;8.48;1.60;;;25.20;99.90;;;;;;4914300;29;20051;-79
2023/07/20 11:52:15;;;;;;;3.13;1.50;;;25.20;99.90;;;;;;4915262;29;20049;-80
2023/07/20 11:54:43;;;;;;;4.38;1.50;;;25.30;99.90;;;;;;4907175;29;20049;-79
2023/07/20 11:57:18;;;;;;;1.95;1.30;;;25.30;99.90;;;;;;4907944;29;20489;-79
2023/07/20 11:59:58;;;;;;;4.50;1.70;;;25.40;99.90;;;;;;4907560;29;20053;-79
2023/07/20 12:02:27;;;;;;;4.10;1.40;;;25.50;99.90;;;;;;4905378;29;20052;-80
2023/07/20 12:04:55;;;;;;;3.90;1.87;;;25.50;99.90;;;;;;4906212;29;20059;-79
2023/07/20 12:07:22;;;;;;;3.25;1.50;;;25.50;99.90;;;;;;4909610;29;20057;-79
2023/07/20 12:10:09;;;;;;;4.68;1.45;;;25.50;99.90;;;;;;4909321;29;20544;-79
2023/07/20 12:12:41;;;;;;;3.42;1.55;;;25.70;99.90;;;;;;4908270;29;20048;-79
2023/07/20 12:15:20;;;;;;;8.30;1.63;;;25.70;99.90;;;;;;4904196;29;20054;-79
2023/07/20 12:17:50;;;;;;;6.25;1.67;;;25.70;99.90;;;;;;4903147;29;20370;-79
2023/07/20 12:20:28;;;;;;;5.90;1.70;;;25.70;99.90;;;;;;4906379;29;20061;-79
2023/07/20 12:23:01;;;;;;;4.35;1.73;;;25.70;99.90;;;;;;4904884;29;20089;-79
2023/07/20 12:25:44;;;;;;;4.55;1.92;;;25.70;99.90;;;;;;4901848;29;20052;-79
2023/07/20 12:28:13;;;;;;;4.63;1.70;;;25.60;99.90;;;;;;4903955;29;20073;-79
2023/07/20 12:30:41;;;;;;;4.65;1.50;;;25.60;99.90;;;;;;4905122;29;20079;-79
2023/07/20 12:33:08;;;;;;;2.88;1.67;;;25.50;99.90;;;;;;4903648;29;20074;-79
2023/07/20 12:35:36;;;;;;;6.97;1.70;;;25.50;99.90;;;;;;4906964;29;20128;-79
2023/07/20 12:38:03;;;;;;;6.65;1.70;;;25.40;99.90;;;;;;4909218;29;20049;-79
2023/07/20 12:40:30;;;;;;;3.17;1.60;;;25.40;99.90;;;;;;4909331;29;20053;-79
2023/07/20 12:42:57;;;;;;;4.90;1.67;;;25.40;99.90;;;;;;4906373;29;20052;-79
2023/07/20 12:45:24;;;;;;;3.38;1.50;;;25.40;99.90;;;;;;4904938;29;20080;-79
2023/07/20 12:47:51;;;;;;;2.70;1.42;;;25.40;99.90;;;;;;4906705;29;20059;-79
2023/07/20 12:50:18;;;;;;;7.13;1.70;;;25.40;99.90;;;;;;4905114;29;20117;-79
2023/07/20 12:52:45;;;;;;;2.95;1.55;;;25.40;99.90;;;;;;4917951;29;20060;-80
2023/07/20 12:55:11;;;;;;;5.25;1.80;;;25.40;99.90;;;;;;4919507;29;20044;-80
2023/07/20 12:57:38;;;;;;;5.45;1.40;;;25.50;99.90;;;;;;4903261;29;20568;-79